Notice: Undefined index: language in /home/u294900127/public_html/vam/index.php on line 31
Aeroboteco

 INFORMAÇÕES METEOROLÓGICAS
METAR FOR UKHH
ADDS - METARS form results

(1525 UTC 25 June 2018)
Data provider http://aviationweather.gov/adds/metars/
 
METAR text: UKHH 251500Z 35003MPS 310V050 CAVOK 22/09 Q1020 R25/0///72 NOSIG
Conditions at: UKHH (HAR'KOV/OSNOVA , UA) observed 1500 UTC 25 June 2018
Temperature: 22.0°C (72°F)
Dewpoint: 9.0°C (48°F) [RH = 43%]
Pressure (altimeter): 30.12 inches Hg (1020.0 mb)
Winds: from the N (350 degrees) at 7 MPH (6 knots; 3.1 m/s)
Visibility: 6 or more miles (10+ km)
Ceiling: ceiling and visibility are OK
Clouds: unknown
Weather: no significant weather observed at this time

METAR text: UKHH 251430Z 36004MPS 320V050 CAVOK 22/09 Q1020 R25/0///72 NOSIG
Conditions at: UKHH (HAR'KOV/OSNOVA , UA) observed 1430 UTC 25 June 2018
Temperature: 22.0°C (72°F)
Dewpoint: 9.0°C (48°F) [RH = 43%]
Pressure (altimeter): 30.12 inches Hg (1020.0 mb)
Winds: from the N (360 degrees) at 9 MPH (8 knots; 4.2 m/s)
Visibility: 6 or more miles (10+ km)
Ceiling: ceiling and visibility are OK
Clouds: unknown
Weather: no significant weather observed at this time

Forecast for: UKHH (HAR'KOV/OSNOVA , UA)
Text: TAF UKHH 251410Z 2515/2524 06003MPS 9999 SCT033
Forecast period: 1500 UTC 25 June 2018 to 0000 UTC 26 June 2018
Forecast type: FROM: standard forecast or significant change
Winds: from the ENE (60 degrees) at 7 MPH (6 knots; 3.1 m/s)
Visibility: 6 or more miles (10+ km)
Clouds: scattered clouds at 3300 feet AGL
Weather: no significant weather forecast for this period

 MAPA DO AEROPORTO

 INFORMAÇÕES DA PISTA
Pista 08 Tamanho da pista 7285 ft Largura da pista 165 ft
Elevação da pista 494 ft Ranhura da pista 0 ft Proa da pista 90
Pista 26 Tamanho da pista 7285 ft Largura da pista 165 ft
Elevação da pista 485 ft Ranhura da pista 0 ft Proa da pista 270

 FREQUÊNCIAS DO AEROPORTO
Tipo APP Nome KHARKIV RA Frequência 118.1 MHZ
Tipo GND Nome KHARKIV GN Frequência 119 MHZ
Tipo PMSV Nome KHARKIV ME Frequência 127.6 MHZ
Tipo TWR Nome KHARKIV TW Frequência 118.1 MHZ

 AUXÍLIOS DE NAVEGAÇÃO PRÓXIMOS AO AEROPORTO
Tipo NDB Nome Kharkiv Frequência 678 KHZ
Tipo NDB Nome Kharkiv Frequência 330 KHZ
Tipo NDB Nome Kharkiv Frequência 330 KHZ
Tipo VOR-DME Nome Kharkiv Frequência 116500 KHZ
Tipo NDB Nome Kharkiv Frequência 678 KHZ



Powered by Virtual Airlines Manager [v2.6.2]